Huvudsida
METAR-TAF:

METAR-TAF

Flygplatser :

Hafar Al-Batin, Saudiarabien

latitud: 27-54N, longitud: 045-32E, höjd: 413 m

METAR: saknas

Tid: 22:41 (19:41 UTC)

Väderprognos

Denna rapport gjordes för 14 timmar och 41 minuter sedan, klockan 05:00 UTC
Prognos gäller från 28 kl. 06 UTC till 28 kl. 20 UTC
Vind 8 kt från väst/sydväst
Sikt: 7000 m
Blir
från 28 kl. 10 UTC till 28 kl. 12 UTC
Vind 10 kt från nord
Blir
från 28 kl. 16 UTC till 28 kl. 18 UTC
Vind 8 kt från ost/nordost

TAF: OEKK 280500Z 2806/2820 24008KT 7000 NSC BECMG 2810/2812 35010KT BECMG 2816/2818 06008KT

Aktuella väderrapporter och prognoser från 4000 flygplatser (METAR- och TAF-rapporter).

De tillgängliga stationerna syns som gula och röda prickar på kartan.

För musen över prickarna för att se namnen på stationerna.

Klicka sedan för att få väderrapporter och prognoser.

För att ändra kartan: Klicka på de gröna knapparna med ett svart kors på för att zooma in; den gröna knappen med ett streck på för att zooma ut; eller på de gröna pilarna för angränsande kartor.


METAR-TAF: